createdAt,value
2022-12-16T00:01:48.012Z,-8.54
2022-12-16T00:04:27.880Z,-8.57
2022-12-16T00:07:07.795Z,-8.58
2022-12-16T00:09:51.054Z,-8.59
2022-12-16T00:12:32.083Z,-8.62
2022-12-16T00:15:13.794Z,-8.64
2022-12-16T00:17:55.057Z,-8.66
2022-12-16T00:20:36.438Z,-8.65
2022-12-16T00:23:17.658Z,-8.67
2022-12-16T00:26:00.620Z,-8.68
2022-12-16T00:28:44.149Z,-8.72
2022-12-16T00:31:28.602Z,-8.72
2022-12-16T00:34:09.659Z,-8.76
2022-12-16T00:36:49.464Z,-8.77
2022-12-16T00:39:29.347Z,-8.79
2022-12-16T00:42:09.134Z,-8.82
2022-12-16T00:44:48.895Z,-8.83
2022-12-16T00:47:28.682Z,-8.83
2022-12-16T00:50:09.703Z,-8.84
2022-12-16T00:52:50.125Z,-8.87
2022-12-16T00:55:31.485Z,-8.88
2022-12-16T00:58:12.782Z,-8.90
2022-12-16T01:00:54.928Z,-8.89
2022-12-16T01:03:36.136Z,-8.90
2022-12-16T01:06:17.679Z,-8.94
2022-12-16T01:08:58.358Z,-8.96
2022-12-16T01:11:38.245Z,-8.96
2022-12-16T01:14:19.695Z,-8.96
2022-12-16T01:16:59.367Z,-8.97
2022-12-16T01:19:39.181Z,-8.97
2022-12-16T01:22:20.017Z,-8.99
2022-12-16T01:25:00.524Z,-9.02
2022-12-16T01:27:40.231Z,-9.06
2022-12-16T01:30:20.271Z,-9.07
2022-12-16T01:33:01.437Z,-9.07
2022-12-16T01:35:54.758Z,-9.08
2022-12-16T01:38:37.366Z,-9.09
2022-12-16T01:41:18.609Z,-9.11
2022-12-16T01:44:12.680Z,-9.10
2022-12-16T01:46:54.964Z,-9.11
2022-12-16T01:49:38.571Z,-9.12
2022-12-16T01:52:18.723Z,-9.18
2022-12-16T01:55:02.239Z,-9.15
2022-12-16T01:57:43.457Z,-9.18
2022-12-16T02:00:26.322Z,-9.17
2022-12-16T02:03:07.509Z,-9.18
2022-12-16T02:05:48.683Z,-9.19
2022-12-16T02:08:28.513Z,-9.21
2022-12-16T02:11:10.706Z,-9.25
2022-12-16T02:13:59.271Z,-9.25
2022-12-16T02:16:47.955Z,-9.25
2022-12-16T02:19:36.254Z,-9.25
2022-12-16T02:22:18.538Z,-9.28
2022-12-16T02:25:24.182Z,-9.29
2022-12-16T02:28:07.406Z,-9.31
2022-12-16T02:30:55.264Z,-9.31
2022-12-16T02:33:49.128Z,-9.34
2022-12-16T02:36:33.127Z,-9.36
2022-12-16T02:39:18.150Z,-9.38
2022-12-16T02:42:00.450Z,-9.39
2022-12-16T02:44:42.920Z,-9.42
2022-12-16T02:47:23.567Z,-9.43
2022-12-16T02:50:06.244Z,-9.43
2022-12-16T02:52:46.197Z,-9.44
2022-12-16T02:55:29.101Z,-9.47
2022-12-16T02:58:16.530Z,-9.47
2022-12-16T03:00:58.981Z,-9.46
2022-12-16T03:03:41.781Z,-9.47
2022-12-16T03:06:22.875Z,-9.47
2022-12-16T03:09:04.451Z,-9.50
2022-12-16T03:11:47.765Z,-9.49
2022-12-16T03:14:29.557Z,-9.51
2022-12-16T03:17:10.152Z,-9.50
2022-12-16T03:19:52.411Z,-9.52
2022-12-16T03:22:34.067Z,-9.53
2022-12-16T03:25:14.374Z,-9.54
2022-12-16T03:27:58.404Z,-9.57
2022-12-16T03:30:39.977Z,-9.55
2022-12-16T03:33:22.708Z,-9.57
2022-12-16T03:36:03.529Z,-9.60
2022-12-16T03:38:46.705Z,-9.62
2022-12-16T03:41:27.563Z,-9.62
2022-12-16T03:44:07.689Z,-9.62
2022-12-16T03:46:48.752Z,-9.63
2022-12-16T03:49:30.545Z,-9.63
2022-12-16T03:52:13.575Z,-9.63
2022-12-16T03:54:56.823Z,-9.63
2022-12-16T03:57:37.605Z,-9.64
2022-12-16T04:00:19.682Z,-9.62
2022-12-16T04:03:00.677Z,-9.65
2022-12-16T04:05:41.829Z,-9.68
2022-12-16T04:08:24.594Z,-9.68
2022-12-16T04:11:22.171Z,-9.69
2022-12-16T04:14:19.667Z,-9.68
2022-12-16T04:17:17.082Z,-9.69
2022-12-16T04:20:16.436Z,-9.71
2022-12-16T04:23:17.091Z,-9.71
2022-12-16T04:25:58.050Z,-9.73
2022-12-16T04:28:37.845Z,-9.72
2022-12-16T04:31:17.705Z,-9.75
2022-12-16T04:34:14.962Z,-9.75
2022-12-16T04:37:15.654Z,-9.77
2022-12-16T04:40:13.081Z,-9.75
2022-12-16T04:43:10.500Z,-9.77
2022-12-16T04:46:09.753Z,-9.78
2022-12-16T04:49:08.584Z,-9.78
2022-12-16T04:52:07.852Z,-9.78
2022-12-16T04:55:06.556Z,-9.77
2022-12-16T04:58:05.495Z,-9.78
2022-12-16T05:01:05.642Z,-9.78
2022-12-16T05:04:03.706Z,-9.79
2022-12-16T05:07:04.517Z,-9.81
2022-12-16T05:10:03.159Z,-9.81
2022-12-16T05:13:00.813Z,-9.82
2022-12-16T05:15:59.639Z,-9.84
2022-12-16T05:18:58.623Z,-9.85
2022-12-16T05:21:56.064Z,-9.82
2022-12-16T05:24:53.453Z,-9.78
2022-12-16T05:27:52.899Z,-9.81
2022-12-16T05:30:51.456Z,-9.84
2022-12-16T05:33:50.867Z,-9.88
2022-12-16T05:36:51.561Z,-9.89
2022-12-16T05:39:50.190Z,-9.91
2022-12-16T05:42:50.975Z,-9.91
2022-12-16T05:45:49.850Z,-9.92
2022-12-16T05:48:48.673Z,-9.92
2022-12-16T05:51:46.238Z,-9.93
2022-12-16T05:54:45.132Z,-9.94
2022-12-16T05:57:52.970Z,-9.98
2022-12-16T06:00:51.277Z,-9.99
2022-12-16T06:03:50.251Z,-10.01
2022-12-16T06:06:51.222Z,-10.01
2022-12-16T06:09:56.529Z,-10.04
2022-12-16T06:12:55.198Z,-10.02
2022-12-16T06:15:54.591Z,-10.01
2022-12-16T06:18:53.231Z,-10.03
2022-12-16T06:21:57.829Z,-10.04
2022-12-16T06:24:57.959Z,-10.07
2022-12-16T06:27:56.540Z,-10.09
2022-12-16T06:30:54.355Z,-10.09
2022-12-16T06:34:06.090Z,-10.11
2022-12-16T06:37:04.830Z,-10.09
2022-12-16T06:40:02.162Z,-10.11
2022-12-16T06:42:59.633Z,-10.10
2022-12-16T06:45:57.026Z,-10.12
2022-12-16T06:48:54.537Z,-10.10
2022-12-16T06:51:54.331Z,-10.11
2022-12-16T06:54:53.927Z,-10.10
2022-12-16T06:58:10.030Z,-10.08
2022-12-16T07:01:07.892Z,-10.06
2022-12-16T07:04:05.544Z,-10.04
2022-12-16T07:07:19.957Z,-9.99
2022-12-16T07:10:18.474Z,-9.96
2022-12-16T07:13:17.726Z,-9.92
2022-12-16T07:16:18.645Z,-9.88
2022-12-16T07:19:17.179Z,-9.80
2022-12-16T07:22:21.351Z,-9.75
2022-12-16T07:25:52.498Z,-9.66
2022-12-16T07:28:51.045Z,-9.61
2022-12-16T07:31:50.031Z,-9.54
2022-12-16T07:34:51.022Z,-9.46
2022-12-16T07:37:49.442Z,-9.38
2022-12-16T07:40:46.871Z,-9.30
2022-12-16T07:43:44.249Z,-9.19
2022-12-16T07:46:41.916Z,-9.10
2022-12-16T07:49:40.666Z,-8.97
2022-12-16T07:52:38.191Z,-8.84
2022-12-16T07:55:37.547Z,-8.75
2022-12-16T07:58:36.119Z,-8.62
2022-12-16T08:01:33.706Z,-8.47
2022-12-16T08:04:35.747Z,-8.37
2022-12-16T08:07:33.077Z,-8.30
2022-12-16T08:10:30.557Z,-8.16
2022-12-16T08:13:39.909Z,-8.03
2022-12-16T08:16:38.115Z,-7.86
2022-12-16T08:19:36.116Z,-7.74
2022-12-16T08:22:34.582Z,-7.61
2022-12-16T08:25:31.956Z,-7.47
2022-12-16T08:28:26.808Z,-7.39
2022-12-16T08:31:25.608Z,-7.31
2022-12-16T08:34:24.120Z,-7.16
2022-12-16T08:37:21.591Z,-7.04
2022-12-16T08:40:34.876Z,-6.97
2022-12-16T08:43:34.363Z,-6.83
2022-12-16T08:46:35.126Z,-6.66
2022-12-16T08:49:33.641Z,-6.59
2022-12-16T08:52:31.026Z,-6.45
2022-12-16T08:55:36.966Z,-6.36
2022-12-16T08:58:35.436Z,-6.26
2022-12-16T09:01:33.134Z,-6.17
2022-12-16T09:04:31.850Z,-6.10
2022-12-16T09:07:29.313Z,-5.98
2022-12-16T09:10:28.397Z,-5.86
2022-12-16T09:13:30.028Z,-5.72
2022-12-16T09:16:30.011Z,-5.55
2022-12-16T09:19:40.755Z,-5.49
2022-12-16T09:22:40.701Z,-5.37
2022-12-16T09:25:41.263Z,-5.25
2022-12-16T09:28:42.905Z,-5.10
2022-12-16T09:31:40.714Z,-4.96
2022-12-16T09:34:41.657Z,-4.81
2022-12-16T09:37:42.454Z,-4.75
2022-12-16T09:40:40.621Z,-4.62
2022-12-16T09:43:44.729Z,-4.51
2022-12-16T09:46:44.796Z,-4.39
2022-12-16T09:49:45.740Z,-4.28
2022-12-16T09:52:43.132Z,-4.18
2022-12-16T09:55:43.075Z,-4.04
2022-12-16T09:58:56.286Z,-3.92
2022-12-16T10:02:07.127Z,-3.82
2022-12-16T10:05:05.786Z,-3.68
2022-12-16T10:08:05.233Z,-3.55
2022-12-16T10:11:05.421Z,-3.45
2022-12-16T10:14:02.955Z,-3.38
2022-12-16T10:17:03.178Z,-3.23
2022-12-16T10:20:07.417Z,-3.11
2022-12-16T10:23:08.741Z,-3.01
2022-12-16T10:26:08.449Z,-2.91
2022-12-16T10:29:07.128Z,-2.78
2022-12-16T10:32:05.610Z,-2.67
2022-12-16T10:35:04.530Z,-2.63
2022-12-16T10:38:15.018Z,-2.58
2022-12-16T10:41:13.920Z,-2.48
2022-12-16T10:44:14.996Z,-2.43
2022-12-16T10:47:13.502Z,-2.39
2022-12-16T10:50:15.087Z,-2.35
2022-12-16T10:53:14.485Z,-2.35
2022-12-16T10:56:15.959Z,-2.38
2022-12-16T10:59:16.104Z,-2.25
2022-12-16T11:02:18.804Z,-2.17
2022-12-16T11:05:17.180Z,-2.08
2022-12-16T11:08:16.101Z,-2.05
2022-12-16T11:11:15.061Z,-2.10
2022-12-16T11:14:16.361Z,-2.10
2022-12-16T11:17:29.727Z,-2.11
2022-12-16T11:20:31.603Z,-2.17
2022-12-16T11:23:33.819Z,-2.21
2022-12-16T11:26:37.204Z,-2.15
2022-12-16T11:29:36.892Z,-2.11
2022-12-16T11:32:36.122Z,-2.07
2022-12-16T11:35:36.053Z,-2.05
2022-12-16T11:38:37.506Z,-1.98
2022-12-16T11:41:40.842Z,-1.66
2022-12-16T11:44:39.904Z,-1.46
2022-12-16T11:47:41.411Z,-1.34
2022-12-16T11:50:38.951Z,-1.22
2022-12-16T11:53:41.350Z,-1.15
2022-12-16T11:56:37.512Z,-0.89
2022-12-16T11:59:37.388Z,-0.75
2022-12-16T12:02:35.887Z,-0.68
2022-12-16T12:05:33.965Z,-0.60
2022-12-16T12:08:34.899Z,-0.59
2022-12-16T12:11:38.711Z,-0.62
2022-12-16T12:14:39.715Z,-0.63
2022-12-16T12:17:41.096Z,-0.59
2022-12-16T12:20:44.057Z,-0.54
2022-12-16T12:23:43.139Z,-0.53
2022-12-16T12:26:41.598Z,-0.48
2022-12-16T12:29:48.061Z,-0.52
2022-12-16T12:32:47.103Z,-0.50
2022-12-16T12:35:51.299Z,-0.54
2022-12-16T12:38:50.837Z,-0.48
2022-12-16T12:41:51.164Z,-0.45
2022-12-16T12:44:54.679Z,-0.48
2022-12-16T12:47:51.682Z,-0.46
2022-12-16T12:50:49.967Z,-0.49
2022-12-16T12:53:52.702Z,-0.45
2022-12-16T12:56:50.069Z,-0.55
2022-12-16T12:59:50.266Z,-0.55
2022-12-16T13:02:46.769Z,-0.55
2022-12-16T13:05:44.326Z,-0.63
2022-12-16T13:09:00.601Z,-0.71
2022-12-16T13:11:58.870Z,-0.61
2022-12-16T13:15:15.027Z,-0.63
2022-12-16T13:18:25.709Z,-0.83
2022-12-16T13:21:58.194Z,-0.71
2022-12-16T13:24:59.746Z,-0.70
2022-12-16T13:28:05.587Z,-0.62
2022-12-16T13:31:21.671Z,-0.59
2022-12-16T13:34:24.081Z,-0.56
2022-12-16T13:37:28.494Z,-0.57
2022-12-16T13:40:31.706Z,-0.59
2022-12-16T13:43:35.856Z,-0.57
2022-12-16T13:46:36.747Z,-0.55
2022-12-16T13:49:51.235Z,-0.54
2022-12-16T13:52:53.627Z,-0.54
2022-12-16T13:55:50.662Z,-0.54
2022-12-16T13:58:51.421Z,-0.65
2022-12-16T14:01:52.639Z,-0.60
2022-12-16T14:04:52.342Z,-0.62
2022-12-16T14:07:51.220Z,-0.59
2022-12-16T14:10:52.070Z,-0.59
2022-12-16T14:13:50.343Z,-0.58
2022-12-16T14:16:50.309Z,-0.64
2022-12-16T14:19:50.252Z,-0.62
2022-12-16T14:22:53.904Z,-0.65
2022-12-16T14:25:52.199Z,-0.65
2022-12-16T14:28:50.610Z,-0.66
2022-12-16T14:31:52.757Z,-0.68
2022-12-16T14:34:51.626Z,-0.70
2022-12-16T14:37:52.286Z,-0.72
2022-12-16T14:40:51.224Z,-0.74
2022-12-16T14:43:49.431Z,-0.75
2022-12-16T14:46:53.242Z,-0.76
2022-12-16T14:49:49.984Z,-0.83
2022-12-16T14:52:46.183Z,-0.86
2022-12-16T14:55:47.412Z,-0.93
2022-12-16T14:58:46.201Z,-0.94
2022-12-16T15:01:45.406Z,-0.99
2022-12-16T15:04:42.366Z,-0.99
2022-12-16T15:07:41.898Z,-1.07
2022-12-16T15:10:42.615Z,-1.07
2022-12-16T15:13:39.223Z,-1.12
2022-12-16T15:16:48.810Z,-1.17
2022-12-16T15:19:45.290Z,-1.20
2022-12-16T15:22:40.910Z,-1.30
2022-12-16T15:25:40.519Z,-1.32
2022-12-16T15:28:43.241Z,-1.34
2022-12-16T15:31:42.518Z,-1.37
2022-12-16T15:34:44.754Z,-1.44
2022-12-16T15:37:43.878Z,-1.46
2022-12-16T15:51:10.977Z,-1.61
2022-12-16T15:54:21.063Z,-1.65
2022-12-16T15:57:33.312Z,-1.67
2022-12-16T16:00:39.828Z,-1.73
2022-12-16T16:03:42.596Z,-1.78
2022-12-16T16:06:40.954Z,-1.82
2022-12-16T16:09:41.207Z,-1.84
2022-12-16T16:12:37.920Z,-1.90
2022-12-16T16:15:36.842Z,-1.92
2022-12-16T16:18:33.803Z,-1.95
2022-12-16T16:21:31.721Z,-1.97
2022-12-16T16:24:32.797Z,-1.98
2022-12-16T16:27:31.668Z,-2.01
2022-12-16T16:30:29.260Z,-2.06
2022-12-16T16:33:27.541Z,-2.08
2022-12-16T16:36:27.401Z,-2.10
2022-12-16T16:39:23.716Z,-2.14
2022-12-16T16:42:21.282Z,-2.15
2022-12-16T16:45:16.849Z,-2.19
2022-12-16T16:48:14.917Z,-2.24
2022-12-16T16:51:15.009Z,-2.22
2022-12-16T16:54:12.597Z,-2.24
2022-12-16T16:57:09.966Z,-2.25
2022-12-16T17:00:07.476Z,-2.27
2022-12-16T17:03:05.247Z,-2.28
2022-12-16T17:06:03.880Z,-2.30
2022-12-16T17:09:01.244Z,-2.34
2022-12-16T17:12:00.621Z,-2.36
2022-12-16T17:15:01.183Z,-2.38
2022-12-16T17:18:05.334Z,-2.39
2022-12-16T17:21:03.685Z,-2.41
2022-12-16T17:23:59.199Z,-2.42
2022-12-16T17:27:00.117Z,-2.44
2022-12-16T17:29:55.598Z,-2.47
2022-12-16T17:32:51.538Z,-2.48
2022-12-16T17:35:49.148Z,-2.52
2022-12-16T17:38:57.950Z,-2.54
2022-12-16T17:41:56.750Z,-2.56
2022-12-16T17:44:56.410Z,-2.58
2022-12-16T17:47:54.864Z,-2.61
2022-12-16T17:50:51.899Z,-2.62
2022-12-16T17:53:54.534Z,-2.66
2022-12-16T17:56:57.138Z,-2.69
2022-12-16T17:59:55.601Z,-2.73
2022-12-16T18:02:53.179Z,-2.75
2022-12-16T18:05:52.109Z,-2.79
2022-12-16T18:08:51.131Z,-2.81
2022-12-16T18:11:50.010Z,-2.84
2022-12-16T18:14:49.397Z,-2.87
2022-12-16T18:17:50.319Z,-2.90
2022-12-16T18:20:48.614Z,-2.93
2022-12-16T18:23:45.084Z,-2.94
2022-12-16T18:26:41.714Z,-2.96
2022-12-16T18:29:39.490Z,-2.98
2022-12-16T18:32:36.523Z,-3.02
2022-12-16T18:35:32.075Z,-3.03
2022-12-16T18:38:28.091Z,-3.04
2022-12-16T18:41:30.934Z,-3.02
2022-12-16T18:44:30.202Z,-3.05
2022-12-16T18:47:30.560Z,-3.07
2022-12-16T18:50:34.214Z,-3.06
2022-12-16T18:53:34.424Z,-3.12
2022-12-16T18:56:32.795Z,-3.07
2022-12-16T18:59:32.570Z,-3.06
2022-12-16T19:02:30.140Z,-3.05
2022-12-16T19:05:28.985Z,-3.06
2022-12-16T19:08:26.042Z,-3.02
2022-12-16T19:11:23.705Z,-3.05
2022-12-16T19:14:19.221Z,-3.03
2022-12-16T19:17:14.968Z,-3.03
2022-12-16T19:20:10.821Z,-3.02
2022-12-16T19:23:08.463Z,-3.02
2022-12-16T19:26:07.574Z,-2.99
2022-12-16T19:29:05.037Z,-3.00
2022-12-16T19:32:06.101Z,-2.98
2022-12-16T19:35:04.582Z,-3.01
2022-12-16T19:38:02.059Z,-2.97
2022-12-16T19:41:09.362Z,-2.94
2022-12-16T19:44:10.006Z,-2.94
2022-12-16T19:47:17.066Z,-2.92
2022-12-16T19:50:15.835Z,-2.89
2022-12-16T19:53:14.872Z,-2.91
2022-12-16T19:56:14.067Z,-2.90
2022-12-16T19:59:12.652Z,-2.92
2022-12-16T20:02:10.387Z,-2.89
2022-12-16T20:05:09.203Z,-2.88
2022-12-16T20:08:07.859Z,-2.92
2022-12-16T20:11:05.448Z,-2.87
2022-12-16T20:14:02.922Z,-2.86
2022-12-16T20:17:00.208Z,-2.85
2022-12-16T20:19:57.469Z,-2.83
2022-12-16T20:22:56.278Z,-2.83
2022-12-16T20:25:56.292Z,-2.83
2022-12-16T20:28:54.680Z,-2.82
2022-12-16T20:31:55.982Z,-2.82
2022-12-16T20:34:54.278Z,-2.83
2022-12-16T20:37:56.170Z,-2.83
2022-12-16T20:40:51.887Z,-2.84
2022-12-16T20:43:47.834Z,-2.85
2022-12-16T20:46:47.052Z,-2.85
2022-12-16T20:50:03.328Z,-2.86
2022-12-16T20:53:01.325Z,-2.86
2022-12-16T20:55:56.620Z,-2.88
2022-12-16T20:58:56.238Z,-2.89
2022-12-16T21:02:21.545Z,-2.88
2022-12-16T21:05:15.303Z,-2.89
2022-12-16T21:08:13.978Z,-2.91
2022-12-16T21:11:15.316Z,-2.91
2022-12-16T21:14:13.334Z,-2.92
2022-12-16T21:17:10.824Z,-2.94
2022-12-16T21:20:08.240Z,-2.95
2022-12-16T21:23:07.151Z,-2.95
2022-12-16T21:26:04.683Z,-2.97
2022-12-16T21:29:01.951Z,-2.98
2022-12-16T21:32:01.548Z,-2.98
2022-12-16T21:35:03.014Z,-2.96
2022-12-16T21:38:04.003Z,-2.97
2022-12-16T21:41:02.829Z,-2.98
2022-12-16T21:44:02.413Z,-3.00
2022-12-16T21:47:02.977Z,-3.02
2022-12-16T21:50:01.884Z,-3.03
2022-12-16T21:53:00.638Z,-3.00
2022-12-16T21:56:01.581Z,-3.04
2022-12-16T21:58:58.194Z,-3.06
2022-12-16T22:01:56.564Z,-3.08
2022-12-16T22:04:56.696Z,-3.05
2022-12-16T22:07:56.172Z,-3.07
2022-12-16T22:10:56.058Z,-3.06
2022-12-16T22:13:53.462Z,-3.07
2022-12-16T22:16:54.441Z,-3.07
2022-12-16T22:19:52.671Z,-3.10
2022-12-16T22:22:53.707Z,-3.10
2022-12-16T22:25:56.053Z,-3.08
2022-12-16T22:28:54.961Z,-3.08
2022-12-16T22:31:55.082Z,-3.08
2022-12-16T22:34:57.422Z,-3.10
2022-12-16T22:37:56.077Z,-3.13
2022-12-16T22:40:54.422Z,-3.15
2022-12-16T22:43:58.010Z,-3.15
2022-12-16T22:46:56.088Z,-3.16
2022-12-16T22:49:56.042Z,-3.16
2022-12-16T22:52:54.899Z,-3.18
2022-12-16T22:55:54.394Z,-3.20
2022-12-16T22:58:57.851Z,-3.19
2022-12-16T23:01:55.276Z,-3.23
2022-12-16T23:04:57.132Z,-3.34
2022-12-16T23:08:04.912Z,-3.29
2022-12-16T23:11:19.994Z,-3.30
2022-12-16T23:14:19.867Z,-3.31
2022-12-16T23:17:17.293Z,-3.35
2022-12-16T23:20:14.846Z,-3.40
2022-12-16T23:23:14.431Z,-3.41
2022-12-16T23:26:16.477Z,-3.44
2022-12-16T23:29:15.141Z,-3.50
2022-12-16T23:32:18.394Z,-3.55
2022-12-16T23:35:16.504Z,-3.58
2022-12-16T23:38:20.668Z,-3.62
2022-12-16T23:41:19.043Z,-3.69
2022-12-16T23:44:16.501Z,-3.73
2022-12-16T23:47:13.989Z,-3.76
2022-12-16T23:50:15.664Z,-3.78
2022-12-16T23:53:21.109Z,-3.86
2022-12-16T23:56:21.310Z,-3.90
2022-12-16T23:59:19.427Z,-3.93
